Time;durP1;ratioP1;P1;durP2;ratioP2;P2;SDS_P1;SDS_P2;PMS_P1;PMS_P2;Temp;Humidity;BMP_temperature;BMP_pressure;BME280_temperature;BME280_humidity;BME280_pressure;Samples;Min_cycle;Max_cycle;Signal;HPM_P1;HPM_P2
2022/11/06 00:01:44;;;;;;;11.52;3.08;;;;;;;8.91;100.00;100685.63;8271989;28;20076;-49
2022/11/06 00:06:46;;;;;;;10.15;4.35;;;;;;;8.88;100.00;100681.34;8291647;28;20562;-49
2022/11/06 00:10:05;;;;;;;5.13;2.53;;;;;;;8.89;100.00;100687.59;8274749;28;20171;-51
2022/11/06 00:14:06;;;;;;;35.60;16.17;;;;;;;8.85;100.00;100688.84;8289835;28;20038;-49
2022/11/06 00:18:07;;;;;;;19.08;5.97;;;;;;;8.74;100.00;100678.06;8289921;28;20501;-50
2022/11/06 00:22:08;;;;;;;7.68;3.63;;;;;;;8.83;100.00;100680.00;8278952;28;20557;-49
2022/11/06 00:26:13;;;;;;;9.57;3.00;;;;;;;8.83;100.00;100680.00;8276246;28;20039;-49
2022/11/06 00:30:13;;;;;;;10.25;3.85;;;;;;;8.74;100.00;100678.94;8276086;28;20069;-49
2022/11/06 00:34:14;;;;;;;9.48;3.75;;;;;;;8.65;100.00;100673.41;8273209;28;20495;-50
2022/11/06 00:38:14;;;;;;;11.38;4.43;;;;;;;8.44;100.00;100665.25;8282026;28;20069;-51
2022/11/06 00:42:15;;;;;;;7.15;3.30;;;;;;;8.34;100.00;100668.78;8295805;28;20443;-49
2022/11/06 00:46:16;;;;;;;15.15;4.38;;;;;;;8.21;100.00;100673.41;8288365;28;20041;-49
2022/11/06 00:50:17;;;;;;;12.15;4.45;;;;;;;8.17;100.00;100671.97;8284861;28;20493;-49
2022/11/06 00:54:18;;;;;;;11.05;4.53;;;;;;;8.47;100.00;100674.91;8277794;28;20411;-49
2022/11/06 00:58:18;;;;;;;24.92;9.98;;;;;;;8.49;100.00;100672.94;8293307;28;20080;-49
2022/11/06 01:02:19;;;;;;;13.48;4.38;;;;;;;8.48;100.00;100682.03;8292073;28;20092;-49
2022/11/06 01:06:23;;;;;;;9.13;2.67;;;;;;;8.26;100.00;100677.47;8292758;28;20041;-50
2022/11/06 01:10:24;;;;;;;7.78;4.35;;;;;;;8.07;100.00;100671.81;8294538;28;20790;-50
2022/11/06 01:14:25;;;;;;;7.05;3.30;;;;;;;7.87;100.00;100649.16;8290423;28;20064;-53
2022/11/06 01:18:25;;;;;;;14.68;3.20;;;;;;;7.98;100.00;100651.88;8312867;28;20095;-50
2022/11/06 01:22:26;;;;;;;6.00;3.05;;;;;;;8.04;100.00;100654.06;8280499;28;20046;-50
2022/11/06 01:26:28;;;;;;;11.18;3.40;;;;;;;8.04;100.00;100639.75;8290808;28;20184;-49
2022/11/06 01:30:28;;;;;;;9.32;2.60;;;;;;;8.07;100.00;100637.69;8287027;28;20058;-49
2022/11/06 01:34:29;;;;;;;7.45;3.20;;;;;;;8.11;100.00;100629.38;8292401;28;24812;-49
2022/11/06 01:38:30;;;;;;;7.28;3.08;;;;;;;8.04;100.00;100627.16;8274190;28;20264;-49
2022/11/06 01:42:30;;;;;;;7.88;3.03;;;;;;;8.09;100.00;100627.63;8265622;28;20089;-49
2022/11/06 01:46:33;;;;;;;9.43;3.17;;;;;;;8.08;100.00;100623.22;8306512;28;20045;-49
2022/11/06 01:50:34;;;;;;;6.97;2.50;;;;;;;8.06;100.00;100611.72;8327933;28;20041;-49
2022/11/06 01:54:39;;;;;;;12.98;3.45;;;;;;;8.05;100.00;100610.00;8310197;28;20045;-50
2022/11/06 01:58:42;;;;;;;7.50;3.33;;;;;;;8.12;100.00;100614.91;8340762;28;20087;-49
2022/11/06 02:02:46;;;;;;;7.78;2.30;;;;;;;8.33;100.00;100618.59;8335094;28;20090;-49
2022/11/06 02:06:47;;;;;;;8.65;2.10;;;;;;;8.74;100.00;100616.06;8357317;28;20044;-53
2022/11/06 02:10:49;;;;;;;5.53;1.95;;;;;;;9.02;98.69;100615.47;8358457;28;20095;-50
2022/11/06 02:19:29;;;;;;;4.35;1.92;;;;;;;9.54;94.84;100599.28;8316515;27;20827;-49
2022/11/06 02:23:56;;;;;;;5.70;1.95;;;;;;;9.46;94.80;100610.72;8320099;28;20045;-49
2022/11/06 02:28:04;;;;;;;7.85;1.48;;;;;;;9.54;95.06;100626.28;8320166;28;20076;-49
2022/11/06 02:32:09;;;;;;;9.77;1.15;;;;;;;9.52;94.82;100614.78;8319215;28;20069;-49
2022/11/06 02:36:16;;;;;;;5.72;1.58;;;;;;;9.35;95.31;100601.84;8319369;28;20038;-49
2022/11/06 02:40:18;;;;;;;6.90;1.60;;;;;;;9.13;96.79;100596.56;8320222;28;20530;-49
2022/11/06 02:44:22;;;;;;;5.13;1.95;;;;;;;9.05;97.42;100590.97;8317830;28;20498;-49
2022/11/06 02:48:28;;;;;;;6.47;1.80;;;;;;;9.03;98.23;100582.16;8319260;28;20042;-49
2022/11/06 02:52:36;;;;;;;6.82;1.95;;;;;;;9.07;97.95;100583.59;8320370;28;20564;-48
2022/11/06 02:56:41;;;;;;;7.63;1.95;;;;;;;9.08;97.91;100579.91;8319419;28;20040;-48
2022/11/06 03:00:47;;;;;;;6.47;2.38;;;;;;;9.07;98.04;100578.22;8310826;28;20045;-49
2022/11/06 03:04:58;;;;;;;7.40;2.10;;;;;;;9.02;98.49;100573.22;8317767;28;20407;-49
2022/11/06 03:09:06;;;;;;;7.85;2.47;;;;;;;8.93;98.65;100575.81;8319906;28;20132;-48
2022/11/06 03:13:18;;;;;;;9.38;2.58;;;;;;;8.46;100.00;100565.44;8319504;28;20474;-50
2022/11/06 03:17:29;;;;;;;10.13;2.50;;;;;;;8.26;100.00;100552.75;8317644;28;20041;-48
2022/11/06 03:21:42;;;;;;;9.60;2.67;;;;;;;8.31;100.00;100566.69;8319044;28;20415;-49
2022/11/06 03:25:49;;;;;;;9.20;3.08;;;;;;;8.38;100.00;100576.00;8318301;28;20038;-49
2022/11/06 03:30:02;;;;;;;4.45;2.08;;;;;;;8.36;100.00;100580.66;8299299;28;20038;-50
2022/11/06 03:34:11;;;;;;;13.02;2.60;;;;;;;8.44;100.00;100579.03;8295650;28;20042;-50
2022/11/06 03:38:19;;;;;;;10.00;1.90;;;;;;;8.51;100.00;100606.34;8284923;28;20060;-50
2022/11/06 03:42:24;;;;;;;10.15;2.10;;;;;;;8.50;100.00;100612.69;8294778;28;20149;-51
2022/11/06 03:46:27;;;;;;;10.32;2.45;;;;;;;8.38;100.00;100595.69;8295637;28;20049;-49
2022/11/06 03:50:36;;;;;;;4.80;2.25;;;;;;;8.11;100.00;100588.97;8296363;28;20049;-48
2022/11/06 03:54:43;;;;;;;8.90;2.67;;;;;;;7.99;100.00;100597.03;8295619;28;20104;-49
2022/11/06 03:58:47;;;;;;;9.93;2.38;;;;;;;7.94;100.00;100590.31;8294839;28;20480;-48
2022/11/06 04:03:03;;;;;;;11.10;2.10;;;;;;;7.88;100.00;100575.53;8294840;28;20046;-48
2022/11/06 04:07:08;;;;;;;6.68;2.65;;;;;;;7.96;100.00;100577.56;8295604;28;20084;-50
2022/11/06 04:15:45;;;;;;;6.45;2.15;;;;;;;7.73;100.00;100581.25;8293748;28;20041;-49
2022/11/06 04:19:50;;;;;;;6.18;2.13;;;;;;;7.63;100.00;100570.34;8285478;28;20053;-48
2022/11/06 04:29:08;;;;;;;9.57;2.97;;;;;;;7.58;100.00;100561.81;8292536;28;20042;-52
2022/11/06 04:33:19;;;;;;;4.40;2.33;;;;;;;7.41;100.00;100556.88;8294454;28;20037;-48
2022/11/06 04:37:30;;;;;;;7.25;2.17;;;;;;;7.16;100.00;100549.00;8294735;28;20053;-51
2022/11/06 04:41:39;;;;;;;8.07;1.92;;;;;;;7.43;100.00;100540.63;8292841;28;20053;-48
2022/11/06 04:45:45;;;;;;;9.45;2.60;;;;;;;7.51;100.00;100528.28;8293185;28;20061;-48
2022/11/06 04:49:49;;;;;;;7.55;2.70;;;;;;;7.53;100.00;100520.94;8294346;28;20096;-48
2022/11/06 04:53:52;;;;;;;5.72;2.45;;;;;;;7.61;100.00;100494.31;8294464;28;20038;-50
2022/11/06 04:57:52;;;;;;;4.30;2.58;;;;;;;7.93;100.00;100497.94;8292630;28;20037;-51
2022/11/06 05:01:53;;;;;;;5.50;2.30;;;;;;;8.17;100.00;100483.47;8293991;28;20152;-49
2022/11/06 05:05:54;;;;;;;10.15;2.35;;;;;;;8.60;100.00;100485.16;8293424;28;20049;-50
2022/11/06 05:09:54;;;;;;;5.60;1.95;;;;;;;8.91;100.00;100486.97;8294309;28;20038;-49
2022/11/06 05:13:55;;;;;;;3.38;1.60;;;;;;;9.11;100.00;100472.66;8292260;28;20056;-49
2022/11/06 05:17:57;;;;;;;9.02;1.60;;;;;;;9.20;100.00;100460.19;8293269;28;20034;-49
2022/11/06 05:22:59;;;;;;;10.45;2.33;;;;;;;9.21;100.00;100454.66;8292533;28;20065;-51
2022/11/06 05:26:18;;;;;;;5.55;1.90;;;;;;;9.27;100.00;100451.44;8292855;28;20045;-50
2022/11/06 05:30:18;;;;;;;7.57;1.90;;;;;;;9.37;100.00;100467.69;8292134;28;20042;-50
2022/11/06 05:34:19;;;;;;;9.68;2.10;;;;;;;9.43;100.00;100441.00;8291949;28;20041;-48
2022/11/06 05:38:20;;;;;;;9.48;1.70;;;;;;;9.48;100.00;100443.31;8293466;28;20053;-48
2022/11/06 05:42:20;;;;;;;7.40;2.30;;;;;;;9.37;100.00;100435.31;8293125;28;20045;-48
2022/11/06 05:46:21;;;;;;;6.07;1.85;;;;;;;9.20;100.00;100428.69;8292171;28;20129;-51
2022/11/06 05:50:22;;;;;;;6.38;1.83;;;;;;;9.04;100.00;100432.84;8292242;28;20053;-49
2022/11/06 05:54:23;;;;;;;10.55;2.42;;;;;;;8.93;100.00;100438.31;8291725;28;20414;-51
2022/11/06 05:58:23;;;;;;;9.02;2.25;;;;;;;8.83;100.00;100434.72;8292970;28;20045;-48
2022/11/06 06:02:24;;;;;;;7.25;2.22;;;;;;;8.67;100.00;100428.91;8289853;28;20057;-52
2022/11/06 06:06:25;;;;;;;5.55;2.47;;;;;;;8.53;100.00;100426.53;8292223;28;20549;-51
2022/11/06 06:10:25;;;;;;;7.35;2.15;;;;;;;8.49;100.00;100430.47;8290929;28;20053;-49
2022/11/06 06:14:26;;;;;;;7.18;2.25;;;;;;;8.41;100.00;100422.19;8290752;28;20038;-49
2022/11/06 06:18:27;;;;;;;10.25;2.60;;;;;;;8.41;100.00;100411.41;8292920;28;20507;-49
2022/11/06 06:22:27;;;;;;;5.93;2.50;;;;;;;8.45;100.00;100408.31;8281722;28;20078;-48
2022/11/06 06:26:28;;;;;;;8.25;3.00;;;;;;;8.56;100.00;100412.81;8271856;28;20046;-49
2022/11/06 06:30:29;;;;;;;6.20;2.30;;;;;;;8.66;100.00;100424.53;8288418;28;20473;-49
2022/11/06 06:34:29;;;;;;;7.10;2.38;;;;;;;8.72;100.00;100421.31;8292041;28;20629;-50
2022/11/06 06:38:30;;;;;;;7.57;1.85;;;;;;;8.74;100.00;100417.50;8285560;28;20050;-49
2022/11/06 06:42:31;;;;;;;9.02;2.25;;;;;;;8.71;100.00;100422.28;8281337;28;20533;-50
2022/11/06 06:46:31;;;;;;;11.48;2.60;;;;;;;8.66;100.00;100425.38;8267785;28;20041;-49
2022/11/06 06:50:32;;;;;;;8.88;3.22;;;;;;;8.68;100.00;100425.22;8273116;28;20038;-50
2022/11/06 06:54:32;;;;;;;14.45;2.67;;;;;;;8.64;100.00;100429.19;8289665;28;20410;-49
2022/11/06 06:58:33;;;;;;;10.52;3.00;;;;;;;8.73;100.00;100439.19;8275495;28;20564;-53
2022/11/06 07:02:33;;;;;;;12.18;2.88;;;;;;;8.84;100.00;100431.03;8272371;28;20466;-50
2022/11/06 07:06:34;;;;;;;7.90;2.70;;;;;;;9.04;100.00;100422.06;8278809;28;20117;-50
2022/11/06 07:10:35;;;;;;;8.88;1.73;;;;;;;9.22;100.00;100412.38;8289349;28;20038;-49
2022/11/06 07:14:35;;;;;;;10.27;2.83;;;;;;;9.41;100.00;100398.97;8297478;28;20464;-53
2022/11/06 07:18:37;;;;;;;10.85;2.53;;;;;;;9.63;100.00;100404.16;8297977;28;20117;-52
2022/11/06 07:22:38;;;;;;;8.80;2.38;;;;;;;9.85;100.00;100420.13;8286288;28;20176;-50
2022/11/06 07:26:38;;;;;;;7.05;2.40;;;;;;;10.09;100.00;100425.22;8280690;28;20046;-51
2022/11/06 07:30:39;;;;;;;8.45;1.90;;;;;;;10.46;98.35;100437.03;8271922;28;20042;-50
2022/11/06 07:34:39;;;;;;;9.80;2.60;;;;;;;10.65;97.79;100429.78;8291711;28;20157;-49
2022/11/06 07:38:41;;;;;;;10.40;2.72;;;;;;;10.73;98.16;100435.31;8263788;28;20038;-53
2022/11/06 07:42:42;;;;;;;7.75;2.40;;;;;;;10.85;96.80;100438.72;8295662;28;20038;-49
2022/11/06 07:46:47;;;;;;;8.60;2.20;;;;;;;10.83;96.25;100432.63;8296238;28;20065;-49
2022/11/06 07:50:48;;;;;;;9.40;2.58;;;;;;;10.95;96.94;100415.22;8289798;28;20045;-50
2022/11/06 07:54:48;;;;;;;9.75;2.67;;;;;;;10.84;96.87;100408.13;8279102;28;20149;-53
2022/11/06 07:58:49;;;;;;;6.30;2.17;;;;;;;10.61;99.36;100409.41;8279536;28;20038;-50
2022/11/06 08:02:51;;;;;;;11.13;4.97;;;;;;;10.70;100.00;100405.84;8276301;28;20415;-50
2022/11/06 08:06:52;;;;;;;5.30;3.53;;;;;;;10.90;98.91;100404.84;8285949;28;20125;-50
2022/11/06 08:10:53;;;;;;;8.57;2.90;;;;;;;11.14;96.84;100397.09;8283694;28;20052;-50
2022/11/06 08:14:54;;;;;;;6.18;3.03;;;;;;;11.52;95.86;100407.75;8293705;28;20038;-51
2022/11/06 08:18:55;;;;;;;9.70;3.50;;;;;;;11.95;93.23;100398.19;8278166;28;20504;-50
2022/11/06 08:22:59;;;;;;;6.70;2.47;;;;;;;12.21;91.62;100383.72;8286843;28;20168;-51
2022/11/06 08:27:01;;;;;;;9.98;2.72;;;;;;;12.35;90.22;100379.63;8280670;28;20049;-50
2022/11/06 08:31:04;;;;;;;7.05;2.65;;;;;;;12.40;90.08;100386.28;8293764;28;20168;-51
2022/11/06 08:35:05;;;;;;;9.98;3.08;;;;;;;12.26;90.39;100385.97;8287945;28;20030;-50
2022/11/06 08:39:06;;;;;;;9.52;3.58;;;;;;;12.60;89.84;100381.53;8293097;28;20050;-51
2022/11/06 08:43:09;;;;;;;9.02;2.90;;;;;;;14.02;84.28;100378.94;8287605;28;20141;-52
2022/11/06 08:47:09;;;;;;;9.02;2.38;;;;;;;14.93;78.17;100361.53;8271494;28;20038;-49
2022/11/06 08:51:10;;;;;;;4.45;1.80;;;;;;;15.73;74.83;100360.50;8270547;28;20124;-50
2022/11/06 08:55:10;;;;;;;7.90;2.40;;;;;;;16.14;72.77;100360.09;8289582;28;20038;-50
2022/11/06 08:59:11;;;;;;;8.88;2.00;;;;;;;16.65;72.01;100353.94;8292109;28;20089;-52
2022/11/06 09:03:14;;;;;;;7.45;1.75;;;;;;;16.44;70.34;100353.75;8293033;28;20042;-50
2022/11/06 09:07:15;;;;;;;4.70;1.50;;;;;;;15.07;74.91;100358.94;8291636;28;20033;-51
2022/11/06 09:11:16;;;;;;;7.18;2.03;;;;;;;15.39;74.05;100344.44;8282918;28;20181;-50
2022/11/06 09:15:18;;;;;;;3.40;1.55;;;;;;;14.47;77.05;100333.16;8274890;28;20592;-52
2022/11/06 09:19:19;;;;;;;7.60;1.52;;;;;;;13.79;79.66;100326.25;8262211;28;20384;-50
2022/11/06 09:23:20;;;;;;;9.32;1.98;;;;;;;12.90;84.04;100322.22;8289414;28;20034;-56
2022/11/06 09:27:20;;;;;;;5.50;1.67;;;;;;;12.84;84.87;100311.19;8276505;28;20042;-55
2022/11/06 09:31:21;;;;;;;5.50;1.98;;;;;;;13.21;84.58;100309.06;8271312;28;20039;-56
2022/11/06 09:35:24;;;;;;;7.97;1.90;;;;;;;14.44;80.05;100290.00;8268770;28;20127;-56
2022/11/06 09:39:25;;;;;;;6.25;1.95;;;;;;;14.54;77.05;100279.78;8275233;28;20042;-56
2022/11/06 09:47:49;;;;;;;6.95;1.50;;;;;;;15.71;73.21;100266.09;8381300;27;20451;-56
2022/11/06 09:51:57;;;;;;;8.07;1.50;;;;;;;16.76;69.89;100268.88;8390114;27;20109;-56
2022/11/06 09:56:00;;;;;;;4.20;1.35;;;;;;;17.05;67.43;100284.44;8394780;27;20045;-56
2022/11/06 10:00:04;;;;;;;8.02;1.88;;;;;;;17.36;66.59;100265.97;8394307;27;20131;-56
2022/11/06 10:04:40;;;;;;;5.22;1.85;;;;;;;17.43;65.63;100273.25;8388834;27;20418;-55
2022/11/06 10:08:42;;;;;;;2.88;1.05;;;;;;;16.48;67.67;100261.47;8356593;28;20041;-55
2022/11/06 10:13:15;;;;;;;6.47;1.50;;;;;;;15.34;70.53;100252.31;8371900;28;20510;-55
2022/11/06 10:17:28;;;;;;;8.70;1.85;;;;;;;14.50;74.84;100261.25;8376085;28;20430;-55
2022/11/06 10:21:48;;;;;;;3.90;1.10;;;;;;;14.19;74.92;100257.50;8381536;28;20040;-55
2022/11/06 10:26:02;;;;;;;2.28;1.30;;;;;;;14.11;76.71;100255.63;8354420;28;20052;-56
2022/11/06 10:30:09;;;;;;;5.78;1.55;;;;;;;13.98;76.12;100243.56;8358283;28;20465;-56
2022/11/06 10:34:17;;;;;;;5.50;1.52;;;;;;;13.70;76.26;100229.44;8347264;28;20041;-56
2022/11/06 10:38:26;;;;;;;4.70;1.15;;;;;;;13.38;77.99;100229.34;8356194;28;20555;-56
2022/11/06 10:42:35;;;;;;;2.47;1.38;;;;;;;13.20;77.43;100231.31;8356337;28;20514;-55
2022/11/06 10:46:42;;;;;;;5.35;1.30;;;;;;;13.36;77.78;100231.41;8347394;28;20033;-55
2022/11/06 10:51:10;;;;;;;3.20;1.20;;;;;;;13.35;77.88;100214.25;8366493;28;20039;-55
2022/11/06 10:59:44;;;;;;;4.18;1.45;;;;;;;13.22;79.32;100202.16;8414027;27;20399;-52
2022/11/06 11:03:46;;;;;;;8.32;1.55;;;;;;;13.22;79.44;100197.59;8360116;28;20048;-54
2022/11/06 11:07:48;;;;;;;6.50;1.60;;;;;;;13.32;78.66;100183.84;8328548;28;20409;-56
2022/11/06 11:11:49;;;;;;;6.80;1.60;;;;;;;13.39;78.70;100176.75;8358197;28;20073;-56
2022/11/06 11:15:49;;;;;;;4.60;1.38;;;;;;;13.50;77.62;100192.72;8363111;28;20049;-55
2022/11/06 11:19:50;;;;;;;6.50;1.33;;;;;;;14.12;76.62;100186.63;8384413;28;20122;-56
2022/11/06 11:24:08;;;;;;;3.30;1.38;;;;;;;16.53;69.75;100174.44;8385866;28;20040;-56
2022/11/06 11:28:21;;;;;;;6.50;1.15;;;;;;;17.51;63.31;100149.28;8364202;27;20028;-56
2022/11/06 11:32:23;;;;;;;6.18;1.30;;;;;;;16.26;66.06;100129.50;8369346;28;20095;-56
2022/11/06 11:36:24;;;;;;;4.90;0.93;;;;;;;15.15;67.62;100138.38;8352928;28;20033;-55
2022/11/06 11:40:40;;;;;;;5.78;0.80;;;;;;;15.84;65.88;100121.03;8352941;28;20503;-55
2022/11/06 11:44:40;;;;;;;3.38;0.80;;;;;;;17.00;63.05;100095.69;8339446;28;20029;-56
2022/11/06 11:53:13;;;;;;;3.92;1.23;;;;;;;15.79;64.31;100082.56;8394658;27;20477;-56
2022/11/06 11:57:20;;;;;;;3.10;0.95;;;;;;;15.31;66.49;100072.06;8387059;28;20508;-56
2022/11/06 12:01:39;;;;;;;5.75;1.40;;;;;;;14.89;68.48;100039.84;8385645;28;20033;-55
2022/11/06 12:05:40;;;;;;;6.45;1.10;;;;;;;14.86;68.48;100045.66;8368777;28;20037;-56
2022/11/06 12:09:43;;;;;;;2.60;0.90;;;;;;;14.69;66.98;100027.72;8387800;28;20043;-56
2022/11/06 12:13:44;;;;;;;3.45;0.80;;;;;;;15.01;66.02;100022.06;8386309;28;20506;-56
2022/11/06 12:17:51;;;;;;;5.70;1.05;;;;;;;15.60;63.51;100018.53;8386657;28;20421;-56
2022/11/06 12:21:57;;;;;;;3.63;1.20;;;;;;;16.37;61.50;100035.41;8387329;28;20036;-56
2022/11/06 12:26:23;;;;;;;3.78;0.90;;;;;;;16.03;61.37;100013.31;8366750;28;20033;-56
2022/11/06 12:30:24;;;;;;;2.75;1.17;;;;;;;15.41;63.51;100005.41;8381472;28;20044;-57
2022/11/06 12:38:47;;;;;;;3.97;1.60;;;;;;;15.57;61.98;100007.16;8420152;27;20472;-56
2022/11/06 12:43:02;;;;;;;3.95;1.10;;;;;;;15.69;61.34;99979.28;8419093;28;20036;-54
2022/11/06 12:47:23;;;;;;;3.13;1.00;;;;;;;15.53;61.24;99995.78;8418554;28;20497;-55
2022/11/06 12:51:39;;;;;;;1.52;0.73;;;;;;;15.05;63.28;99970.81;8419097;28;20075;-53
2022/11/06 12:55:52;;;;;;;2.80;0.68;;;;;;;14.65;62.96;99963.81;8401049;28;20066;-56
2022/11/06 13:00:18;;;;;;;3.45;1.10;;;;;;;14.48;63.63;99970.38;8401315;28;20127;-56
2022/11/06 13:04:43;;;;;;;2.97;0.68;;;;;;;14.66;63.61;99973.66;8399362;28;20189;-56
2022/11/06 13:08:59;;;;;;;7.10;1.23;;;;;;;14.76;64.80;99974.25;8418776;28;20576;-56
2022/11/06 13:13:40;;;;;;;6.30;1.48;;;;;;;14.66;65.28;99968.22;8406813;28;20127;-55
2022/11/06 13:17:50;;;;;;;5.88;1.42;;;;;;;14.59;66.04;99980.84;8396326;28;20060;-55
2022/11/06 13:26:19;;;;;;;6.32;1.13;;;;;;;14.58;66.52;99976.41;8377163;27;20849;-56
2022/11/06 13:30:23;;;;;;;3.60;0.80;;;;;;;14.68;65.05;99968.88;8346662;28;20046;-56
2022/11/06 13:34:29;;;;;;;4.57;0.90;;;;;;;14.61;64.68;99953.47;8349268;28;20513;-55
2022/11/06 13:38:37;;;;;;;4.28;0.68;;;;;;;14.55;63.74;99954.19;8334077;28;20087;-56
2022/11/06 13:42:44;;;;;;;4.93;1.10;;;;;;;14.44;64.56;99960.88;8333921;28;20041;-55
2022/11/06 13:47:12;;;;;;;3.38;1.10;;;;;;;14.14;67.22;99944.50;8364289;28;20141;-54
2022/11/06 13:51:30;;;;;;;3.65;1.50;;;;;;;14.02;68.36;99944.06;8360649;28;20068;-52
2022/11/06 13:56:02;;;;;;;5.53;1.42;;;;;;;13.84;69.41;99943.44;8352926;28;20046;-53
2022/11/06 14:00:43;;;;;;;3.20;1.02;;;;;;;13.75;69.73;99936.34;8360934;28;20041;-53
2022/11/06 14:05:23;;;;;;;4.03;0.98;;;;;;;13.73;69.23;99962.84;8345171;28;20061;-56
2022/11/06 14:09:26;;;;;;;3.05;0.95;;;;;;;13.78;68.88;99961.31;8372482;28;20850;-56
2022/11/06 14:13:32;;;;;;;1.88;1.17;;;;;;;13.57;70.51;99952.00;8380583;28;20037;-55
2022/11/06 14:17:32;;;;;;;6.53;1.30;;;;;;;13.42;71.79;99954.59;8386202;28;20494;-55
2022/11/06 14:21:43;;;;;;;5.28;1.50;;;;;;;13.41;72.04;99957.47;8386398;28;20552;-55
2022/11/06 14:25:55;;;;;;;4.85;1.42;;;;;;;13.40;71.62;99967.50;8370854;28;20048;-55
2022/11/06 14:30:15;;;;;;;1.83;0.95;;;;;;;13.39;71.37;99954.13;8366483;28;20029;-54
2022/11/06 14:34:27;;;;;;;2.50;0.85;;;;;;;13.45;68.06;99945.28;8360145;28;20052;-56
2022/11/06 14:38:32;;;;;;;3.30;0.90;;;;;;;13.45;68.24;99942.56;8345293;28;20123;-54
2022/11/06 14:42:37;;;;;;;5.03;1.08;;;;;;;13.33;69.80;99952.09;8346187;28;20064;-56
2022/11/06 14:46:38;;;;;;;;;;;;;;;13.35;69.60;99950.88;8344485;28;20259;-55
2022/11/06 14:50:40;;;;;;;1.90;0.80;;;;;;;13.21;70.82;99938.00;8343694;28;19932;-56
2022/11/06 14:54:55;;;;;;;5.80;1.55;;;;;;;12.73;74.38;99947.97;8345742;28;20064;-56
2022/11/06 14:59:05;;;;;;;2.97;0.98;;;;;;;12.47;74.98;99944.56;8344673;28;20051;-54
2022/11/06 15:03:22;;;;;;;2.78;1.02;;;;;;;12.23;76.90;99939.09;8341917;28;20523;-55
2022/11/06 15:07:46;;;;;;;3.28;0.90;;;;;;;12.07;78.44;99933.63;8341935;28;20070;-54
2022/11/06 15:11:55;;;;;;;3.67;1.10;;;;;;;11.90;80.47;99949.78;8345323;28;20040;-56
2022/11/06 15:16:08;;;;;;;4.68;1.13;;;;;;;11.87;80.61;99963.66;8345787;28;20039;-55
2022/11/06 15:20:20;;;;;;;4.43;0.98;;;;;;;11.75;82.19;99974.97;8331575;28;20129;-55
2022/11/06 15:24:27;;;;;;;5.03;1.30;;;;;;;11.55;83.12;99974.31;8331413;28;20045;-53
2022/11/06 15:28:33;;;;;;;2.90;0.90;;;;;;;11.35;83.00;99977.38;8316496;28;20388;-55
2022/11/06 15:32:40;;;;;;;6.63;1.05;;;;;;;11.15;85.56;99955.09;8321927;28;20041;-55
2022/11/06 15:36:46;;;;;;;6.40;1.35;;;;;;;10.94;86.96;99941.06;8371851;28;20050;-56
2022/11/06 15:40:50;;;;;;;4.97;1.30;;;;;;;10.84;89.63;99945.72;8335769;28;20086;-55
2022/11/06 15:44:51;;;;;;;4.47;1.70;;;;;;;10.73;90.09;99920.78;8355282;28;20045;-55
2022/11/06 15:49:19;;;;;;;3.83;1.63;;;;;;;10.69;90.99;99925.66;8312705;28;20048;-53
2022/11/06 15:53:25;;;;;;;3.92;1.33;;;;;;;10.70;91.77;99926.50;8316136;28;20045;-55
2022/11/06 15:57:28;;;;;;;3.80;1.70;;;;;;;10.63;94.48;99910.03;8340595;28;20052;-55
2022/11/06 16:01:32;;;;;;;4.15;1.88;;;;;;;10.61;96.65;99895.81;8345521;28;20413;-55
2022/11/06 16:05:36;;;;;;;4.70;2.33;;;;;;;10.62;95.92;99881.31;8344149;28;20124;-54
2022/11/06 16:09:40;;;;;;;2.42;1.25;;;;;;;10.68;94.74;99869.88;8343207;28;20095;-53
2022/11/06 16:13:43;;;;;;;3.15;1.40;;;;;;;10.64;94.02;99833.34;8337531;28;20473;-56
2022/11/06 16:17:43;;;;;;;6.55;2.00;;;;;;;10.83;90.28;99814.22;8313577;28;20033;-51
2022/11/06 16:21:53;;;;;;;3.05;1.83;;;;;;;11.10;85.75;99787.00;8327551;28;20037;-53
2022/11/06 16:26:04;;;;;;;10.77;2.83;;;;;;;11.04;89.21;99817.38;8343134;28;20067;-54
2022/11/06 16:30:05;;;;;;;8.13;2.80;;;;;;;11.02;90.08;99819.41;8334557;28;20064;-55
2022/11/06 16:34:19;;;;;;;6.97;3.20;;;;;;;11.11;91.22;99836.53;8336917;28;20496;-52
2022/11/06 16:38:34;;;;;;;6.05;5.03;;;;;;;11.01;92.05;99830.41;8325490;28;20050;-53
2022/11/06 16:42:35;;;;;;;11.43;4.72;;;;;;;11.04;90.95;99847.13;8325308;28;20042;-52
2022/11/06 16:47:15;;;;;;;8.23;2.47;;;;;;;11.08;90.75;99882.84;8329717;28;20044;-55
2022/11/06 16:51:31;;;;;;;5.85;1.70;;;;;;;11.10;87.80;99876.25;8334885;28;20120;-53
2022/11/06 16:55:33;;;;;;;4.40;2.15;;;;;;;11.15;86.65;99875.78;8323690;28;20057;-50
2022/11/06 16:59:34;;;;;;;5.47;2.67;;;;;;;11.14;85.61;99856.00;8339813;28;20060;-53
2022/11/06 17:03:46;;;;;;;3.72;2.47;;;;;;;10.98;88.03;99844.25;8334892;28;20038;-54
2022/11/06 17:07:47;;;;;;;6.95;2.20;;;;;;;10.72;90.28;99844.22;8342187;28;20090;-54
2022/11/06 17:11:52;;;;;;;10.70;5.35;;;;;;;10.59;91.28;99833.00;8356791;28;20066;-51
2022/11/06 17:15:55;;;;;;;;;;;;;;;10.49;92.33;99826.81;8352359;28;20041;-53
2022/11/06 17:19:56;;;;;;;13.00;5.97;;;;;;;10.44;95.03;99822.88;8341330;28;19920;-52
2022/11/06 17:23:57;;;;;;;13.15;5.75;;;;;;;10.39;94.91;99809.84;8343293;28;20041;-53
2022/11/06 17:27:57;;;;;;;9.93;3.92;;;;;;;10.37;94.69;99801.03;8344807;28;20045;-52
2022/11/06 17:32:03;;;;;;;6.95;3.08;;;;;;;10.33;95.89;99804.22;8333051;28;20041;-52
2022/11/06 17:36:04;;;;;;;7.90;2.35;;;;;;;10.38;95.30;99786.53;8334442;28;20034;-53
2022/11/06 17:40:05;;;;;;;9.18;4.18;;;;;;;10.37;95.69;99779.44;8318375;28;20045;-51
2022/11/06 17:44:08;;;;;;;4.97;2.92;;;;;;;10.43;95.49;99800.41;8323271;28;20132;-54
2022/11/06 17:48:09;;;;;;;4.85;2.58;;;;;;;10.50;94.12;99790.69;8323240;28;20038;-53
2022/11/06 17:52:11;;;;;;;8.75;2.90;;;;;;;10.60;93.71;99788.72;8353748;28;20041;-51
2022/11/06 17:56:11;;;;;;;6.55;3.80;;;;;;;10.53;94.41;99784.97;8344257;28;20047;-51
2022/11/06 18:00:12;;;;;;;4.57;3.20;;;;;;;10.40;96.34;99781.81;8309831;28;20463;-55
2022/11/06 18:04:16;;;;;;;8.48;4.63;;;;;;;10.37;95.46;99775.91;8318105;28;20042;-51
2022/11/06 18:08:17;;;;;;;4.30;2.50;;;;;;;10.48;92.29;99773.78;8307640;28;20060;-52
2022/11/06 18:12:20;;;;;;;7.38;2.45;;;;;;;10.77;88.23;99771.59;8337323;28;20559;-55
2022/11/06 18:16:26;;;;;;;4.18;1.88;;;;;;;11.06;83.86;99774.81;8342827;28;20051;-54
2022/11/06 18:20:27;;;;;;;5.82;2.30;;;;;;;11.19;82.96;99772.50;8324472;28;20079;-51
2022/11/06 18:24:28;;;;;;;3.28;1.83;;;;;;;11.24;82.16;99780.97;8328901;28;20037;-52
2022/11/06 18:28:28;;;;;;;4.32;1.80;;;;;;;11.36;80.70;99768.84;8347958;28;20049;-51
2022/11/06 18:32:29;;;;;;;2.92;2.08;;;;;;;11.28;81.26;99765.25;8330018;28;20080;-53
2022/11/06 18:36:33;;;;;;;4.20;2.22;;;;;;;11.23;81.68;99773.03;8351723;28;20051;-54
2022/11/06 18:40:39;;;;;;;5.95;2.17;;;;;;;11.27;81.11;99774.38;8358223;28;20392;-53
2022/11/06 18:44:40;;;;;;;2.50;1.73;;;;;;;11.32;81.05;99775.56;8342398;28;20083;-55
2022/11/06 18:48:42;;;;;;;3.33;1.48;;;;;;;11.31;81.19;99771.19;8326735;28;20045;-52
2022/11/06 18:52:43;;;;;;;3.85;2.17;;;;;;;11.31;81.24;99765.78;8340374;28;20030;-54
2022/11/06 18:56:44;;;;;;;5.80;2.75;;;;;;;11.39;81.37;99767.66;8324300;28;20038;-53
2022/11/06 19:00:45;;;;;;;5.35;1.60;;;;;;;11.49;81.18;99799.00;8337268;28;20045;-52
2022/11/06 19:04:46;;;;;;;2.95;1.65;;;;;;;11.48;81.56;99789.19;8326646;28;20041;-52
2022/11/06 19:08:48;;;;;;;5.35;1.58;;;;;;;11.46;82.60;99802.03;8322055;28;20547;-52
2022/11/06 19:12:49;;;;;;;2.85;1.58;;;;;;;11.53;81.95;99803.06;8328049;28;20045;-54
2022/11/06 19:16:49;;;;;;;4.78;2.00;;;;;;;11.55;81.34;99808.31;8322814;28;20069;-55
2022/11/06 19:20:50;;;;;;;4.03;1.35;;;;;;;11.51;83.33;99812.38;8304082;28;20045;-52
2022/11/06 19:24:50;;;;;;;3.85;1.80;;;;;;;11.49;83.60;99822.50;8317331;28;20038;-53
2022/11/06 19:28:51;;;;;;;5.38;1.88;;;;;;;11.54;83.46;99809.34;8348871;28;20036;-54
2022/11/06 19:32:52;;;;;;;2.15;1.63;;;;;;;11.61;83.83;99805.81;8357840;28;20025;-54
2022/11/06 19:36:53;;;;;;;5.68;2.10;;;;;;;11.53;84.98;99813.88;8340896;28;20053;-53
2022/11/06 19:40:59;;;;;;;3.38;0.80;;;;;;;11.58;85.24;99821.50;8340827;28;20041;-51